KHUF/HUF METAR and TAF weather

Enter ICAO airport designator
Station Type Date Time Source
KHUF METAR 2020/08/12 17:53 UTC NOAA

KHUF 121753Z 33004KT 10SM FEW031 29/21 A3007 RMK AO2 SLP178 T02940211 10294 20200 55002


Station Type Date Time Source
KHUF Decoded METAR 2020/08/12 17:53 UTC NOAA

TERRE HAUTE INTERNATIONAL -HULMAN FLD, IN, United States (KHUF) 39-27N 087-19W 179M
Aug 12, 2020 - 01:53 PM EDT / 2020.08.12 1753 UTC
Wind: from the NNW (330 degrees) at 5 MPH (4 KT):0
Visibility: 10 mile(s):0
Sky conditions: mostly clear
Temperature: 84.9 F (29.4 C)
Dew Point: 70.0 F (21.1 C)
Relative Humidity: 61%
Pressure (altimeter): 30.07 in. Hg (1018 hPa)
Pressure tendency: 0.01 inches (0.2 hPa) lower than three hours ago
ob: KHUF 121753Z 33004KT 10SM FEW031 29/21 A3007 RMK AO2 SLP178 T02940211 10294 20200 55002
cycle: 18

Station Type Date Time Source
KHUF TAF 2020/08/12 18:27 UTC NOAA

TAF KHUF 121725Z 1218/1318 00000KT P6SM SCT035 BKN170
FM130000 VRB03KT P6SM FEW050 SCT250
FM131500 07005KT P6SM BKN170

Example: see airport list